Kralendijk, Bonaire, Dutch Antilles Cruise Port

Bonaire has consistently been ranked as the finest snorkeling and scuba diving destination in the Caribbean for two decades. This is because of the island's diligent stewardship of its marine resources. Since 1979, all the waters of Bonaire's coast have been legally protected.

Besides snorkeling and scuba diving, there is plenty more to be done here. Bonaire has trade winds that are usually steady and wash over the island. This creates ideal conditions for windsurfing. The sere beauty of this semi-desert landscape is home to an assortment of wildlife. Atop the rock formations of Washington Slagbaai you can find iguanas toasting themselves, while they watch a vast cloud of orange-pink flamingoes drift across the bone-white salt flats. The divi-divi trees bending into the surreal sculptures of the wind, and towering cacti represent the Caribbean's diverse ecology.

Another great thing about Bonaire is that it has a yearly average temperature of 82 degrees F (27.8 degrees C) with an average water temperature of 80 degrees F (26.7 degrees C). All year, Bonaire is not likely to see more than 22 inches (56 cm) of rain. This can be attributed to its nearly constant humidity of 76% and year round sunny forecast.

Cruise Deals Including Bonaire

Date Ship Nts Destination Inside Oceanview Balcony Suite Per Night
2021-01-03 Getaway 11 Southern Caribbean $ 1199 pp $ 1409 pp $ 1739 pp $ 2139 pp $ 109 pp/pd
2021-01-04 Constellation 11 Southern Caribbean $ 2849 pp $ 2999 pp $ 3889 pp N/A $ 258 pp/pd
2021-01-10 Freedom Of The Seas 7 Southern Caribbean $ 1019 pp $ 1242 pp $ 1699 pp $ 2399 pp $ 146 pp/pd
2021-01-11 Pearl 10 Southern Caribbean $ 1149 pp $ 1299 pp $ 2099 pp $ 2489 pp $ 115 pp/pd
2021-01-24 Freedom Of The Seas 7 Southern Caribbean $ 709 pp $ 819 pp $ 979 pp $ 2296 pp $ 101 pp/pd
2021-01-25 Reflection 11 Southern Caribbean $ 2449 pp $ 2529 pp $ 2829 pp N/A $ 223 pp/pd
2021-01-31 Epic 7 Caribbean $ 799 pp N/A $ 1099 pp $ 1299 pp $ 114 pp/pd
2021-02-07 Epic 7 Southern Caribbean $ 799 pp N/A $ 1049 pp $ 1299 pp $ 114 pp/pd
2021-02-14 Epic 7 Caribbean $ 999 pp N/A $ 1299 pp $ 1599 pp $ 143 pp/pd
2021-02-15 Constellation 11 Southern Caribbean $ 3559 pp $ 3749 pp $ 4879 pp N/A $ 144 pp/pd
2021-02-16 Riviera 22 World Cruise N/A N/A $ 6649 pp $ 9149 pp $ 302 pp/pd
2021-02-19 Equinox 9 Southern Caribbean $ 3509 pp $ 3609 pp $ 3909 pp N/A $ 135 pp/pd
2021-02-21 Freedom Of The Seas 7 Southern Caribbean $ 709 pp $ 819 pp $ 979 pp $ 1659 pp $ 101 pp/pd
2021-02-26 Riviera 22 World Cruise N/A N/A $ 5999 pp $ 8699 pp $ 273 pp/pd
2021-02-27 Summit 7 Southern Caribbean $ 2289 pp $ 2599 pp $ 3119 pp N/A $ 90 pp/pd
2021-03-07 Epic 7 Caribbean $ 749 pp N/A $ 1049 pp $ 1399 pp $ 107 pp/pd
2021-03-08 Reflection 11 Southern Caribbean $ 3339 pp $ 3698 pp $ 3898 pp N/A $ 114 pp/pd
2021-03-12 Equinox 9 Southern Caribbean $ 3329 pp $ 3598 pp $ 3949 pp N/A $ 135 pp/pd
2021-03-14 Sun 11 Panama Canal $ 1249 pp $ 1449 pp $ 2049 pp $ 2749 pp $ 114 pp/pd
2021-03-21 Freedom Of The Seas 7 Southern Caribbean $ 729 pp $ 839 pp $ 1029 pp $ 1709 pp $ 104 pp/pd
2021-03-27 Summit 7 Southern Caribbean $ 2339 pp $ 2609 pp $ 3079 pp N/A $ 97 pp/pd
2021-03-28 Epic 7 Caribbean $ 749 pp N/A $ 999 pp $ 1349 pp $ 107 pp/pd
2021-03-29 Constellation 11 Southern Caribbean $ 3649 pp $ 3909 pp $ 4579 pp N/A $ 149 pp/pd
2021-04-02 Equinox 9 Southern Caribbean $ 2898 pp $ 3898 pp $ 3998 pp N/A $ 151 pp/pd
2021-04-04 Freedom Of The Seas 7 Southern Caribbean $ 719 pp $ 859 pp $ 1049 pp $ 1799 pp $ 103 pp/pd
2021-04-11 Jade 11 Southern Caribbean $ 1029 pp $ 1329 pp $ 2229 pp $ 2629 pp $ 94 pp/pd
2021-04-18 Freedom Of The Seas 7 Southern Caribbean $ 729 pp $ 839 pp $ 1029 pp $ 1709 pp $ 104 pp/pd
2021-04-23 Breakaway 9 Southern Caribbean $ 1049 pp $ 1329 pp $ 1769 pp $ 2159 pp $ 117 pp/pd
2021-04-24 Summit 7 Southern Caribbean $ 3830 pp $ 4250 pp $ 4804 pp N/A $ 84 pp/pd
2021-04-27 Seven Seas Navigator 14 Eastern Caribbean N/A N/A N/A $ 8799 pp $ 629 pp/pd
2021-05-09 Vision Of The Seas 7 Southern Caribbean $ 849 pp $ 1079 pp $ 1348 pp $ 2498 pp $ 121 pp/pd
2021-05-14 Breakaway 9 Southern Caribbean $ 1049 pp $ 1399 pp $ 1769 pp $ 2159 pp $ 117 pp/pd
2021-05-16 Seven Seas Navigator 15 Eastern Caribbean N/A N/A N/A $ 7799 pp $ 520 pp/pd
2021-05-30 Vision Of The Seas 7 Southern Caribbean $ 848 pp $ 1028 pp $ 1348 pp $ 2498 pp $ 121 pp/pd
2021-06-20 Vision Of The Seas 7 Southern Caribbean $ 649 pp $ 799 pp $ 999 pp $ 1949 pp $ 93 pp/pd
2021-07-11 Vision Of The Seas 7 Southern Caribbean $ 699 pp $ 849 pp $ 1129 pp $ 2049 pp $ 100 pp/pd
2021-08-08 Vision Of The Seas 7 Southern Caribbean $ 549 pp $ 799 pp $ 1049 pp $ 1699 pp $ 78 pp/pd
2021-08-27 Equinox 9 Southern Caribbean $ 1959 pp $ 2348 pp $ 2948 pp N/A $ 109 pp/pd
2021-09-05 Vision Of The Seas 7 Southern Caribbean $ 549 pp $ 749 pp $ 1049 pp $ 1599 pp $ 78 pp/pd
2021-09-17 Equinox 9 Southern Caribbean $ 2259 pp $ 2549 pp $ 2679 pp N/A $ 109 pp/pd
2021-10-03 Vision Of The Seas 7 Southern Caribbean $ 549 pp $ 699 pp $ 999 pp $ 1499 pp $ 78 pp/pd
2021-10-08 Equinox 9 Southern Caribbean $ 1949 pp $ 2249 pp $ 2509 pp N/A $ 109 pp/pd
2021-10-15 Sirena 27 World Cruise $ 3599 pp $ 4099 pp $ 5799 pp N/A $ 133 pp/pd
2021-10-19 Joy 11 Southern Caribbean $ 1549 pp $ 1819 pp $ 2449 pp $ 2679 pp $ 141 pp/pd
2021-10-20 Equinox 9 Southern Caribbean $ 804 pp $ 934 pp $ 1264 pp $ 3749 pp $ 89 pp/pd
2021-10-23 Summit 7 Southern Caribbean $ 1298 pp $ 1393 pp $ 1773 pp $ 3969 pp $ 185 pp/pd
2021-10-29 Equinox 9 Southern Caribbean $ 2229 pp $ 2429 pp $ 2899 pp N/A $ 109 pp/pd
2021-10-30 Vision Of The Seas 7 Southern Caribbean $ 449 pp $ 599 pp $ 849 pp $ 1249 pp $ 64 pp/pd
2021-11-02 Sky 9 Panama Canal $ 1249 pp $ 1499 pp $ 1849 pp $ 4189 pp $ 139 pp/pd
2021-11-04 Caribbean Princess 16 Caribbean $ 1239 pp $ 1412 pp $ 2064 pp $ 2669 pp $ 77 pp/pd
2021-11-06 Sky Princess 14 Caribbean $ 1019 pp $ 1539 pp $ 1329 pp $ 2099 pp $ 73 pp/pd
2021-11-10 Rotterdam 21 Southern Caribbean $ 2979 pp $ 3579 pp $ 4029 pp $ 7749 pp $ 142 pp/pd
2021-11-11 Sky 9 Panama Canal $ 1249 pp $ 1499 pp $ 1849 pp $ 3489 pp $ 139 pp/pd
2021-11-12 Caribbean Princess 16 Caribbean $ 1249 pp $ 1469 pp $ 2049 pp $ 2619 pp $ 78 pp/pd
2021-11-19 Equinox 9 Southern Caribbean $ 2359 pp $ 2608 pp $ 3048 pp N/A $ 114 pp/pd
2021-11-20 Caribbean Princess 8 Caribbean $ 729 pp $ 814 pp $ 1109 pp $ 1394 pp $ 91 pp/pd
2021-11-21 Rotterdam 21 Southern Caribbean $ 2829 pp $ 3379 pp $ 3829 pp $ 7849 pp $ 135 pp/pd
2021-11-22 Edge 11 Transcanal $ 4358 pp $ 4798 pp $ 5198 pp N/A $ 185 pp/pd
2021-11-26 Quest 14 Caribbean $ 3499 pp $ 3999 pp $ 3499 pp $ 4999 pp $ 250 pp/pd
2021-11-27 Horizon 8 Southern Caribbean $ 614 pp $ 769 pp $ 1004 pp $ 1949 pp $ 77 pp/pd
2021-11-28 Explorer Of The Seas 7 Southern Caribbean $ 697 pp $ 841 pp $ 1035 pp $ 1906 pp $ 100 pp/pd
2021-11-29 Sky 9 Panama Canal $ 1249 pp $ 1459 pp $ 1799 pp $ 3489 pp $ 139 pp/pd
2021-11-30 Enchanted Princess 20 Caribbean $ 1579 pp N/A $ 2543 pp $ 3499 pp $ 79 pp/pd
2021-12-01 Rotterdam 21 Southern Caribbean $ 2629 pp $ 3179 pp $ 3579 pp $ 7449 pp $ 125 pp/pd
2021-12-04 Summit 7 Southern Caribbean $ 1329 pp $ 1429 pp $ 1829 pp $ 3919 pp $ 190 pp/pd
2021-12-06 Sunshine 10 Southern Caribbean $ 709 pp $ 999 pp $ 1339 pp $ 2619 pp $ 71 pp/pd
2021-12-08 Sky 9 Panama Canal $ 1249 pp $ 1499 pp $ 2069 pp $ 3689 pp $ 139 pp/pd
2021-12-10 Enchanted Princess 20 Caribbean $ 2029 pp $ 3134 pp $ 3276 pp $ 4299 pp $ 101 pp/pd
2021-12-11 Seabourn Odyssey 18 Caribbean N/A $ 8999 pp N/A $ 9499 pp $ 500 pp/pd
2021-12-12 Rotterdam 21 Southern Caribbean $ 3179 pp $ 4129 pp $ 4629 pp $ 10149 pp $ 151 pp/pd
2021-12-13 Discovery Princess 16 Caribbean $ 2879 pp N/A $ 3949 pp $ 4449 pp $ 180 pp/pd
2021-12-18 Seabourn Odyssey 21 Caribbean N/A $ 10999 pp N/A $ 11499 pp $ 524 pp/pd
2021-12-20 Enchanted Princess 20 Caribbean $ 2479 pp $ 3898 pp $ 4058 pp $ 5149 pp $ 124 pp/pd
2021-12-21 Discovery Princess 16 Caribbean $ 3279 pp N/A $ 4108 pp $ 5149 pp $ 205 pp/pd
2021-12-23 Riviera 12 Caribbean N/A $ 3349 pp $ 3899 pp $ 5949 pp $ 279 pp/pd
2021-12-24 Edge 11 Transcanal $ 5598 pp $ 6138 pp $ 7058 pp N/A $ 229 pp/pd
2021-12-26 Explorer Of The Seas 7 Southern Caribbean $ 1350 pp $ 1592 pp $ 1894 pp $ 2801 pp $ 193 pp/pd
2021-12-27 Getaway 9 Southern Caribbean $ 1669 pp $ 1999 pp $ 2219 pp $ 2549 pp $ 185 pp/pd
2021-12-30 Enchanted Princess 20 Caribbean $ 2179 pp $ 3421 pp $ 3569 pp $ 4549 pp $ 109 pp/pd
2022-01-02 Nieuw Statendam 21 Southern Caribbean $ 3029 pp $ 3629 pp $ 4229 pp $ 6149 pp $ 144 pp/pd
2022-01-03 Constellation 11 Southern Caribbean $ 2069 pp $ 2269 pp $ 3369 pp N/A $ 184 pp/pd
2022-01-04 Riviera 73 World Cruise $ 15999 pp $ 18449 pp $ 20949 pp $ 30699 pp $ 219 pp/pd
2022-01-05 Getaway 9 Southern Caribbean $ 969 pp $ 1219 pp $ 1569 pp $ 1799 pp $ 108 pp/pd
2022-01-08 Horizon 8 Southern Caribbean $ 669 pp $ 849 pp $ 1209 pp $ 2199 pp $ 84 pp/pd
2022-01-09 Enchanted Princess 20 Caribbean $ 1879 pp $ 2991 pp $ 3129 pp $ 3999 pp $ 94 pp/pd
2022-01-12 Nieuw Statendam 21 Southern Caribbean $ 3129 pp $ 3829 pp $ 4429 pp $ 6449 pp $ 149 pp/pd
2022-01-15 Summit 7 Southern Caribbean $ 1379 pp $ 1479 pp $ 1879 pp $ 4019 pp $ 197 pp/pd
2022-01-16 Epic 7 Southern Caribbean $ 899 pp N/A $ 1249 pp $ 1349 pp $ 128 pp/pd
2022-01-19 Enchanted Princess 20 Caribbean $ 1929 pp $ 3038 pp $ 3178 pp $ 4049 pp $ 96 pp/pd
2022-01-20 Jewel 10 Panama Canal $ 1219 pp $ 1469 pp $ 1869 pp $ 2219 pp $ 122 pp/pd
2022-01-21 Equinox 9 Southern Caribbean $ 1919 pp $ 2219 pp $ 2899 pp N/A $ 209 pp/pd
2022-01-22 Horizon 8 Southern Caribbean $ 679 pp $ 879 pp $ 1289 pp $ 2001 pp $ 85 pp/pd
2022-01-23 Explorer Of The Seas 7 Southern Caribbean $ 719 pp $ 839 pp $ 1039 pp $ 1749 pp $ 103 pp/pd
2022-01-24 Edge 11 Southern Caribbean $ 1684 pp $ 1844 pp $ 2254 pp $ 6289 pp $ 153 pp/pd
2022-01-29 Enchanted Princess 20 Caribbean $ 1979 pp $ 3038 pp $ 3178 pp $ 4049 pp $ 99 pp/pd
2022-01-30 Jewel 11 Panama Canal $ 1279 pp $ 1529 pp $ 2079 pp $ 2529 pp $ 116 pp/pd
2022-02-02 Getaway 9 Southern Caribbean $ 1019 pp $ 1419 pp $ 1749 pp $ 1969 pp $ 113 pp/pd
2022-02-03 Seven Seas Splendor 14 Eastern Caribbean N/A N/A N/A $ 8049 pp $ 575 pp/pd
2022-02-05 Silver Spirit 9 Caribbean N/A N/A N/A $ 3960 pp $ 440 pp/pd
2022-02-07 Riviera 12 Caribbean $ 2899 pp $ 3599 pp $ 4199 pp $ 5599 pp $ 242 pp/pd
2022-02-08 Enchanted Princess 20 Caribbean $ 2029 pp $ 3086 pp $ 3227 pp $ 4049 pp $ 101 pp/pd
2022-02-09 Dawn 11 Southern Caribbean $ 1099 pp $ 1449 pp $ 2129 pp $ 2479 pp $ 100 pp/pd
2022-02-11 Sirena 12 Caribbean $ 2699 pp $ 3049 pp $ 4249 pp $ 5599 pp $ 225 pp/pd
2022-02-12 Freedom 8 Southern Caribbean $ 669 pp $ 799 pp $ 1109 pp $ 1684 pp $ 84 pp/pd
2022-02-13 Nieuw Statendam 21 Southern Caribbean $ 3229 pp $ 3979 pp $ 4629 pp $ 6749 pp $ 154 pp/pd
2022-02-18 Enchanted Princess 20 Caribbean $ 2079 pp $ 3134 pp $ 3276 pp $ 4049 pp $ 104 pp/pd
2022-02-19 Horizon 8 Southern Caribbean $ 709 pp $ 889 pp $ 1299 pp $ 2151 pp $ 89 pp/pd
2022-02-20 Explorer Of The Seas 7 Southern Caribbean $ 719 pp $ 839 pp $ 1039 pp $ 1749 pp $ 103 pp/pd
2022-02-21 Jewel 9 Panama Canal $ 1069 pp $ 1319 pp $ 1769 pp $ 2019 pp $ 119 pp/pd
2022-02-23 Nieuw Statendam 21 Southern Caribbean $ 3229 pp $ 3979 pp $ 4629 pp $ 6749 pp $ 154 pp/pd
2022-02-26 Summit 7 Southern Caribbean $ 1379 pp $ 1479 pp $ 1879 pp $ 4019 pp $ 197 pp/pd
2022-02-27 Crown Princess 14 Caribbean $ 1209 pp $ 1324 pp $ 2339 pp $ 3134 pp $ 86 pp/pd
2022-02-28 Enchanted Princess 20 Caribbean $ 2029 pp $ 3086 pp $ 3227 pp $ 3999 pp $ 101 pp/pd
2022-03-02 Jewel 8 Panama Canal $ 999 pp $ 1249 pp $ 1599 pp $ 1899 pp $ 125 pp/pd
2022-03-04 Equinox 9 Southern Caribbean $ 2359 pp $ 2839 pp $ 3259 pp N/A $ 124 pp/pd
2022-03-05 Sirena 12 Caribbean $ 2199 pp $ 2349 pp $ 3249 pp $ 4399 pp $ 183 pp/pd
2022-03-06 Nieuw Statendam 21 Southern Caribbean $ 3229 pp $ 3979 pp $ 4629 pp $ 6749 pp $ 154 pp/pd
2022-03-07 Edge 11 Southern Caribbean $ 3998 pp $ 4298 pp $ 4698 pp N/A $ 149 pp/pd
2022-03-10 Enchanted Princess 20 Caribbean $ 2016 pp $ 3086 pp $ 3227 pp $ 4049 pp $ 101 pp/pd
2022-03-12 Summit 7 Southern Caribbean $ 1329 pp $ 1429 pp $ 1729 pp $ 3549 pp $ 190 pp/pd
2022-03-13 Epic 7 Southern Caribbean $ 999 pp N/A $ 1349 pp $ 1399 pp $ 143 pp/pd
2022-03-16 Nieuw Statendam 21 Southern Caribbean $ 3229 pp $ 3979 pp $ 4629 pp $ 6749 pp $ 154 pp/pd
2022-03-19 Seabourn Odyssey 14 Southern Caribbean N/A $ 6299 pp N/A $ 6599 pp $ 450 pp/pd
2022-03-20 Explorer Of The Seas 7 Southern Caribbean $ 849 pp $ 1099 pp $ 1399 pp $ 2249 pp $ 121 pp/pd
2022-03-25 Equinox 9 Southern Caribbean $ 2359 pp $ 2839 pp $ 3259 pp N/A $ 124 pp/pd
2022-03-26 Seabourn Odyssey 7 Southern Caribbean N/A $ 3499 pp N/A $ 3799 pp $ 500 pp/pd
2022-03-27 Nieuw Statendam 21 Southern Caribbean $ 3229 pp $ 3979 pp $ 4629 pp $ 6749 pp $ 154 pp/pd
2022-03-30 Enchanted Princess 10 Southern Caribbean $ 999 pp $ 1577 pp $ 1663 pp $ 2049 pp $ 100 pp/pd
2022-04-02 Crown Princess 14 Caribbean $ 1209 pp $ 1324 pp $ 2339 pp $ 3134 pp $ 86 pp/pd
2022-04-09 Summit 7 Southern Caribbean $ 1479 pp $ 1579 pp $ 2029 pp $ 4389 pp $ 211 pp/pd
2022-04-16 Seabourn Odyssey 12 Caribbean N/A $ 5499 pp N/A $ 5999 pp $ 458 pp/pd
2022-04-17 Explorer Of The Seas 7 Southern Caribbean $ 719 pp $ 839 pp $ 1039 pp $ 1749 pp $ 103 pp/pd
2022-04-23 Summit 7 Southern Caribbean $ 1179 pp $ 1179 pp $ 1779 pp $ 4125 pp $ 168 pp/pd
2022-04-30 Horizon 8 Southern Caribbean $ 749 pp $ 929 pp $ 1319 pp $ 2021 pp $ 94 pp/pd
2022-05-28 Horizon 8 Southern Caribbean $ 919 pp $ 1119 pp $ 1489 pp $ 2301 pp $ 115 pp/pd
2022-06-06 Crystal Esprit 7 Mediterranean N/A N/A N/A $ 8122 pp $ 1160 pp/pd
2022-06-25 Horizon 8 Southern Caribbean $ 1019 pp $ 1239 pp $ 1679 pp $ 2429 pp $ 127 pp/pd
2022-07-23 Horizon 8 Southern Caribbean $ 1009 pp $ 1229 pp $ 1669 pp $ 2419 pp $ 126 pp/pd
2022-08-20 Horizon 8 Southern Caribbean $ 759 pp $ 919 pp $ 1269 pp $ 1931 pp $ 95 pp/pd
2022-09-17 Horizon 8 Southern Caribbean $ 679 pp $ 829 pp $ 1129 pp $ 1791 pp $ 85 pp/pd
2022-10-15 Horizon 8 Southern Caribbean $ 669 pp $ 819 pp $ 1119 pp $ 1781 pp $ 84 pp/pd
2022-10-22 Freedom 8 Southern Caribbean $ 639 pp $ 769 pp $ 1039 pp $ 1499 pp $ 80 pp/pd
2022-10-23 Seven Seas Navigator 14 Bermuda N/A N/A N/A $ 7499 pp $ 536 pp/pd
2022-11-12 Horizon 8 Southern Caribbean $ 669 pp $ 819 pp $ 1119 pp $ 1781 pp $ 84 pp/pd
2022-11-19 Freedom 8 Southern Caribbean $ 699 pp $ 839 pp $ 1099 pp $ 1559 pp $ 87 pp/pd
2022-11-24 Jewel 9 Panama Canal $ 1169 pp $ 1469 pp $ 1919 pp $ 2269 pp $ 130 pp/pd
2022-11-27 Dawn 14 Southern Caribbean $ 1399 pp $ 1899 pp $ 2779 pp $ 3329 pp $ 100 pp/pd
2022-12-03 Jewel 9 Panama Canal $ 1069 pp $ 1369 pp $ 1819 pp $ 2169 pp $ 119 pp/pd
2022-12-05 Sunshine 10 Southern Caribbean $ 749 pp $ 989 pp $ 1389 pp $ 2189 pp $ 75 pp/pd
2022-12-10 Horizon 8 Southern Caribbean $ 669 pp $ 839 pp $ 1179 pp $ 1841 pp $ 84 pp/pd
2022-12-21 Pearl 12 Panama Canal $ 1879 pp $ 2379 pp $ 3679 pp $ 4379 pp $ 157 pp/pd
2022-12-23 Encore 11 Southern Caribbean $ 2779 pp $ 3279 pp $ 3659 pp $ 4009 pp $ 253 pp/pd
2022-12-30 Epic 9 Southern Caribbean $ 1669 pp N/A $ 2269 pp $ 2469 pp $ 185 pp/pd
2022-12-31 Magic 8 Southern Caribbean $ 959 pp $ 1179 pp $ 1429 pp $ 1991 pp $ 120 pp/pd
2023-01-07 Horizon 8 Southern Caribbean $ 669 pp $ 849 pp $ 1219 pp $ 1961 pp $ 84 pp/pd
2023-01-08 Epic 7 Southern Caribbean $ 949 pp N/A $ 1349 pp $ 1499 pp $ 136 pp/pd
2023-01-14 Freedom 8 Southern Caribbean $ 619 pp $ 749 pp $ 1009 pp $ 1519 pp $ 77 pp/pd
2023-01-15 Epic 7 Southern Caribbean $ 949 pp N/A $ 1349 pp $ 1499 pp $ 136 pp/pd
2023-01-21 Seven Seas Splendor 11 Eastern Caribbean N/A N/A N/A $ 6399 pp $ 582 pp/pd
2023-01-22 Epic 7 Southern Caribbean $ 949 pp N/A $ 1349 pp $ 1499 pp $ 136 pp/pd
2023-01-23 Seven Seas Navigator 11 Eastern Caribbean N/A N/A N/A $ 5299 pp $ 482 pp/pd
2023-01-26 Jewel 9 Panama Canal $ 1069 pp $ 1369 pp $ 1819 pp $ 2169 pp $ 119 pp/pd
2023-01-28 Magic 8 Southern Caribbean $ 719 pp $ 869 pp $ 1109 pp $ 1521 pp $ 90 pp/pd
2023-01-29 Epic 7 Southern Caribbean $ 979 pp N/A $ 1379 pp $ 1529 pp $ 140 pp/pd
2023-02-04 Jewel 9 Panama Canal $ 1069 pp $ 1369 pp $ 1819 pp $ 2169 pp $ 119 pp/pd
2023-02-05 Epic 7 Southern Caribbean $ 999 pp N/A $ 1399 pp $ 1549 pp $ 143 pp/pd
2023-02-08 Seven Seas Splendor 14 Eastern Caribbean N/A N/A N/A $ 8199 pp $ 586 pp/pd
2023-02-11 Freedom 8 Southern Caribbean $ 679 pp $ 809 pp $ 1099 pp $ 1609 pp $ 85 pp/pd
2023-02-12 Epic 7 Southern Caribbean $ 999 pp N/A $ 1399 pp $ 1549 pp $ 143 pp/pd
2023-02-13 Jewel 9 Panama Canal $ 1069 pp $ 1369 pp $ 1819 pp $ 2169 pp $ 119 pp/pd
2023-02-18 Horizon 8 Southern Caribbean $ 719 pp $ 899 pp $ 1309 pp $ 2051 pp $ 90 pp/pd
2023-02-19 Epic 7 Southern Caribbean $ 999 pp N/A $ 1399 pp $ 1549 pp $ 143 pp/pd
2023-02-22 Jewel 10 Panama Canal $ 1219 pp $ 1519 pp $ 1969 pp $ 2369 pp $ 122 pp/pd
2023-02-25 Magic 8 Southern Caribbean $ 669 pp $ 819 pp $ 1059 pp $ 1581 pp $ 84 pp/pd
2023-02-26 Epic 7 Southern Caribbean $ 1029 pp N/A $ 1429 pp $ 1579 pp $ 147 pp/pd
2023-03-04 Jewel 8 Panama Canal $ 999 pp $ 1299 pp $ 1699 pp $ 1999 pp $ 125 pp/pd
2023-03-05 Epic 7 Southern Caribbean $ 1049 pp N/A $ 1449 pp $ 1599 pp $ 150 pp/pd
2023-03-11 Freedom 8 Southern Caribbean $ 719 pp $ 859 pp $ 1159 pp $ 1639 pp $ 90 pp/pd
2023-03-12 Epic 7 Southern Caribbean $ 1049 pp N/A $ 1449 pp $ 1599 pp $ 150 pp/pd
2023-03-18 Horizon 8 Southern Caribbean $ 799 pp $ 979 pp $ 1389 pp $ 2131 pp $ 100 pp/pd
2023-03-19 Epic 7 Southern Caribbean $ 1049 pp N/A $ 1449 pp $ 1599 pp $ 150 pp/pd
2023-03-25 Magic 8 Southern Caribbean $ 819 pp $ 969 pp $ 1209 pp $ 1601 pp $ 102 pp/pd
2023-03-26 Epic 7 Southern Caribbean $ 1049 pp N/A $ 1449 pp $ 1599 pp $ 150 pp/pd
2023-04-01 Horizon 8 Southern Caribbean $ 799 pp $ 979 pp $ 1389 pp $ 2131 pp $ 100 pp/pd
2023-04-02 Epic 7 Southern Caribbean $ 1049 pp N/A $ 1449 pp $ 1599 pp $ 150 pp/pd
2023-04-08 Freedom 8 Southern Caribbean $ 719 pp $ 859 pp $ 1159 pp $ 1639 pp $ 90 pp/pd
2023-04-09 Epic 7 Southern Caribbean $ 1099 pp N/A $ 1549 pp $ 1649 pp $ 157 pp/pd
2023-04-29 Horizon 8 Southern Caribbean $ 759 pp $ 939 pp $ 1319 pp $ 2061 pp $ 95 pp/pd
2023-06-12 Crystal Esprit 7 Mediterranean N/A N/A N/A $ 6917 pp $ 988 pp/pd
?>